createdAt,value
2022-10-22T20:20:55.156Z,100411.63
2022-10-22T20:23:22.417Z,100408.81
2022-10-22T20:25:49.499Z,100411.16
2022-10-22T20:28:16.885Z,100412.56
2022-10-22T20:30:45.997Z,100438.66
2022-10-22T20:33:15.245Z,100443.72
2022-10-22T20:35:42.623Z,100445.59
2022-10-22T20:38:14.976Z,100444.38
2022-10-22T20:40:42.414Z,100444.38
2022-10-22T20:43:12.302Z,100435.94
2022-10-22T20:45:40.094Z,100451.50
2022-10-22T20:48:08.072Z,100450.00
2022-10-22T20:50:35.532Z,100456.06
2022-10-22T20:53:03.048Z,100460.66
2022-10-22T20:55:30.297Z,100448.97
2022-10-22T20:57:59.133Z,100459.13
2022-10-22T21:00:27.617Z,100449.47
2022-10-22T21:02:54.918Z,100446.63
2022-10-22T21:05:22.274Z,100447.94
2022-10-22T21:07:49.525Z,100453.53
2022-10-22T21:10:16.638Z,100456.91
2022-10-22T21:12:44.400Z,100464.84
2022-10-22T21:15:12.781Z,100462.50
2022-10-22T21:17:40.885Z,100466.75
2022-10-22T21:20:08.281Z,100455.72
2022-10-22T21:22:35.348Z,100470.47
2022-10-22T21:25:03.976Z,100469.63
2022-10-22T21:27:30.926Z,100462.88
2022-10-22T21:29:57.831Z,100477.38
2022-10-22T21:32:26.614Z,100485.34
2022-10-22T21:34:53.578Z,100481.81
2022-10-22T21:37:22.962Z,100480.13
2022-10-22T21:39:49.869Z,100479.09
2022-10-22T21:42:16.874Z,100483.81
2022-10-22T21:44:43.839Z,100488.75
2022-10-22T21:47:10.963Z,100476.88
2022-10-22T21:49:37.923Z,100491.44
2022-10-22T21:52:07.208Z,100503.97
2022-10-22T21:54:35.992Z,100502.78
2022-10-22T21:57:03.471Z,100501.94
2022-10-22T21:59:32.505Z,100499.75
2022-10-22T22:02:04.763Z,100499.75
2022-10-22T22:04:33.043Z,100498.38
2022-10-22T22:07:00.038Z,100479.09
2022-10-22T22:09:27.068Z,100478.75
2022-10-22T22:11:54.152Z,100475.88
2022-10-22T22:14:21.080Z,100489.25
2022-10-22T22:16:48.015Z,100486.38
2022-10-22T22:19:14.966Z,100475.72
2022-10-22T22:21:41.949Z,100473.84
2022-10-22T22:24:12.934Z,100491.09
2022-10-22T22:26:40.420Z,100484.69
2022-10-22T22:29:07.473Z,100476.56
2022-10-22T22:31:35.953Z,100476.41
2022-10-22T22:34:10.296Z,100486.53
2022-10-22T22:36:39.802Z,100474.53
2022-10-22T22:39:10.668Z,100487.56
2022-10-22T22:41:37.591Z,100490.94
2022-10-22T22:44:04.759Z,100492.50
2022-10-22T22:46:31.783Z,100477.75
2022-10-22T22:48:58.887Z,100486.72
2022-10-22T22:51:25.802Z,100481.63
2022-10-22T22:53:52.787Z,100480.78
2022-10-22T22:56:22.826Z,100472.47
2022-10-22T22:58:50.587Z,100487.53
2022-10-22T23:01:23.630Z,100478.25
2022-10-22T23:04:13.786Z,100486.19
2022-10-22T23:06:41.028Z,100491.25
2022-10-22T23:09:10.448Z,100492.63
2022-10-22T23:11:38.718Z,100485.66
2022-10-22T23:14:07.708Z,100490.09
2022-10-22T23:16:37.547Z,100494.31
2022-10-22T23:19:05.077Z,100489.22
2022-10-22T23:21:35.530Z,100487.69
2022-10-22T23:24:08.302Z,100494.47
2022-10-22T23:26:38.747Z,100488.81
2022-10-22T23:29:10.487Z,100493.94
2022-10-22T23:31:37.687Z,100489.06
2022-10-22T23:34:06.187Z,100488.38
2022-10-22T23:36:35.261Z,100481.78
2022-10-22T23:39:08.907Z,100486.28
2022-10-22T23:41:36.424Z,100493.78
2022-10-22T23:44:04.591Z,100484.25
2022-10-22T23:46:31.582Z,100487.53
2022-10-22T23:48:58.693Z,100478.06
2022-10-22T23:51:25.936Z,100483.94
2022-10-22T23:53:58.478Z,100483.75
2022-10-22T23:56:26.928Z,100470.41
2022-10-22T23:58:54.593Z,100487.31
